createdAt,value
2018-12-19T00:00:30.467Z,9.23
2018-12-19T00:02:59.023Z,11.23
2018-12-19T00:05:27.638Z,11.37
2018-12-19T00:07:56.383Z,10.37
2018-12-19T00:10:24.996Z,10.03
2018-12-19T00:12:53.647Z,10.43
2018-12-19T00:15:22.353Z,9.23
2018-12-19T00:17:50.908Z,9.30
2018-12-19T00:20:19.474Z,8.83
2018-12-19T00:22:48.027Z,9.83
2018-12-19T00:25:17.071Z,10.10
2018-12-19T00:27:45.662Z,10.87
2018-12-19T00:30:14.274Z,9.10
2018-12-19T00:32:42.825Z,9.63
2018-12-19T00:35:11.478Z,8.40
2018-12-19T00:37:40.008Z,8.27
2018-12-19T00:40:08.710Z,8.37
2018-12-19T00:42:37.262Z,9.03
2018-12-19T00:45:06.097Z,9.00
2018-12-19T00:47:34.808Z,9.60
2018-12-19T00:50:03.723Z,9.63
2018-12-19T00:52:32.219Z,8.73
2018-12-19T00:55:00.748Z,10.20
2018-12-19T00:57:29.829Z,9.07
2018-12-19T00:59:58.375Z,8.20
2018-12-19T01:02:27.406Z,9.43
2018-12-19T01:04:56.070Z,8.80
2018-12-19T01:07:24.636Z,11.37
2018-12-19T01:09:53.278Z,8.67
2018-12-19T01:12:21.745Z,11.03
2018-12-19T01:14:50.335Z,9.50
2018-12-19T01:17:18.935Z,8.40
2018-12-19T01:19:47.530Z,9.07
2018-12-19T01:22:16.051Z,9.97
2018-12-19T01:24:44.666Z,9.87
2018-12-19T01:27:13.471Z,10.37
2018-12-19T01:29:42.313Z,8.53
2018-12-19T01:32:24.687Z,9.90
2018-12-19T01:34:53.316Z,9.43
2018-12-19T01:37:21.840Z,9.03
2018-12-19T01:39:50.382Z,8.87
2018-12-19T01:42:18.988Z,8.90
2018-12-19T01:44:47.532Z,7.20
2018-12-19T01:47:16.137Z,7.63
2018-12-19T01:49:44.796Z,8.07
2018-12-19T01:52:13.520Z,8.60
2018-12-19T01:54:42.170Z,7.30
2018-12-19T01:57:10.835Z,6.90
2018-12-19T01:59:39.287Z,8.03
2018-12-19T02:02:07.953Z,8.53
2018-12-19T02:04:36.655Z,6.80
2018-12-19T02:07:05.166Z,7.47
2018-12-19T02:09:33.791Z,7.57
2018-12-19T02:12:02.496Z,7.00
2018-12-19T02:14:31.168Z,7.80
2018-12-19T02:16:59.903Z,8.20
2018-12-19T02:19:28.819Z,6.87
2018-12-19T02:21:57.400Z,7.67
2018-12-19T02:24:26.054Z,7.37
2018-12-19T02:26:54.955Z,7.10
2018-12-19T02:29:23.752Z,8.10
2018-12-19T02:31:52.550Z,7.40
2018-12-19T02:34:21.400Z,8.33
2018-12-19T02:36:50.311Z,7.03
2018-12-19T02:39:19.050Z,7.60
2018-12-19T02:41:48.100Z,9.03
2018-12-19T02:44:17.058Z,6.27
2018-12-19T02:46:45.930Z,7.17
2018-12-19T02:49:14.733Z,7.80
2018-12-19T02:51:43.450Z,8.67
2018-12-19T02:54:12.261Z,7.33
2018-12-19T02:56:41.088Z,7.30
2018-12-19T02:59:10.241Z,6.70
2018-12-19T03:01:39.204Z,8.00
2018-12-19T03:04:07.820Z,6.43
2018-12-19T03:06:36.672Z,8.20
2018-12-19T03:09:07.749Z,7.77
2018-12-19T03:11:36.535Z,5.93
2018-12-19T03:14:05.682Z,7.50
2018-12-19T03:16:34.709Z,8.27
2018-12-19T03:19:04.181Z,6.80
2018-12-19T03:21:33.181Z,6.40
2018-12-19T03:24:01.915Z,7.07
2018-12-19T03:26:30.670Z,8.03
2018-12-19T03:28:59.302Z,6.93
2018-12-19T03:31:28.146Z,7.57
2018-12-19T03:33:56.894Z,6.20
2018-12-19T03:36:25.515Z,7.97
2018-12-19T03:38:54.314Z,7.43
2018-12-19T03:41:23.950Z,6.63
2018-12-19T03:43:52.607Z,7.40
2018-12-19T03:46:21.567Z,7.13
2018-12-19T03:48:56.319Z,8.13
2018-12-19T03:51:25.037Z,5.57
2018-12-19T03:53:54.117Z,5.70
2018-12-19T03:56:22.905Z,7.00
2018-12-19T03:58:51.515Z,5.60
2018-12-19T04:01:20.103Z,6.13
2018-12-19T04:03:48.928Z,6.50
2018-12-19T04:06:17.793Z,6.23
2018-12-19T04:08:46.664Z,6.43
2018-12-19T04:11:15.575Z,6.47
2018-12-19T04:13:44.500Z,5.87
2018-12-19T04:16:13.338Z,5.77
2018-12-19T04:18:42.196Z,6.83
2018-12-19T04:21:10.892Z,9.40
2018-12-19T04:23:39.522Z,5.83
2018-12-19T04:26:08.490Z,7.10
2018-12-19T04:28:37.134Z,6.07
2018-12-19T04:31:05.743Z,5.57
2018-12-19T04:33:34.791Z,6.17
2018-12-19T04:36:03.882Z,7.13
2018-12-19T04:38:32.981Z,6.33
2018-12-19T04:41:01.868Z,6.17
2018-12-19T04:43:30.500Z,5.70
2018-12-19T04:45:59.194Z,8.20
2018-12-19T04:48:27.735Z,5.53
2018-12-19T04:50:56.204Z,5.23
2018-12-19T04:53:24.668Z,5.90
2018-12-19T04:55:53.419Z,5.90
2018-12-19T04:58:21.955Z,5.97
2018-12-19T05:00:50.454Z,6.13
2018-12-19T05:03:19.006Z,5.47
2018-12-19T05:05:47.700Z,5.23
2018-12-19T05:08:16.623Z,6.17
2018-12-19T05:10:45.230Z,6.07
2018-12-19T05:13:13.870Z,10.53
2018-12-19T05:15:42.396Z,7.47
2018-12-19T05:18:11.012Z,8.53
2018-12-19T05:20:39.534Z,5.93
2018-12-19T05:23:08.221Z,5.70
2018-12-19T05:25:36.748Z,4.87
2018-12-19T05:28:05.315Z,4.90
2018-12-19T05:30:34.122Z,4.97
2018-12-19T05:33:02.734Z,4.90
2018-12-19T05:35:31.294Z,5.63
2018-12-19T05:37:59.858Z,4.60
2018-12-19T05:40:28.596Z,5.10
2018-12-19T05:42:57.325Z,3.27
2018-12-19T05:45:25.851Z,3.90
2018-12-19T05:47:54.421Z,4.07
2018-12-19T05:50:26.533Z,5.73
2018-12-19T05:52:55.078Z,5.17
2018-12-19T05:55:23.750Z,5.00
2018-12-19T05:57:52.189Z,5.63
2018-12-19T06:00:20.946Z,5.03
2018-12-19T06:02:49.444Z,5.90
2018-12-19T06:05:18.779Z,6.43
2018-12-19T06:07:47.247Z,6.90
2018-12-19T06:10:15.801Z,11.50
2018-12-19T06:12:45.027Z,9.23
2018-12-19T06:15:13.570Z,7.60
2018-12-19T06:17:42.024Z,6.13
2018-12-19T06:20:10.663Z,6.37
2018-12-19T06:22:39.327Z,5.47
2018-12-19T06:25:08.001Z,6.13
2018-12-19T06:27:36.619Z,7.00
2018-12-19T06:30:05.534Z,5.93
2018-12-19T06:32:34.186Z,7.77
2018-12-19T06:35:03.905Z,5.90
2018-12-19T06:37:32.502Z,7.23
2018-12-19T06:40:01.277Z,6.10
2018-12-19T06:42:29.970Z,9.00
2018-12-19T06:44:58.663Z,5.83
2018-12-19T06:47:27.197Z,6.00
2018-12-19T06:49:56.098Z,7.23
2018-12-19T06:52:24.588Z,9.40
2018-12-19T06:54:53.128Z,7.90
2018-12-19T06:57:21.780Z,6.60
2018-12-19T06:59:50.483Z,6.53
2018-12-19T07:02:19.757Z,6.27
2018-12-19T07:04:49.194Z,5.80
2018-12-19T07:07:17.702Z,5.60
2018-12-19T07:09:46.294Z,9.77
2018-12-19T07:12:15.073Z,5.90
2018-12-19T07:14:43.883Z,5.83
2018-12-19T07:17:12.513Z,4.97
2018-12-19T07:19:41.195Z,6.40
2018-12-19T07:22:09.789Z,6.60
2018-12-19T07:24:38.470Z,7.13
2018-12-19T07:27:07.012Z,4.70
2018-12-19T07:29:35.786Z,6.30
2018-12-19T07:32:04.279Z,6.83
2018-12-19T07:34:33.021Z,5.97
2018-12-19T07:37:01.682Z,6.53
2018-12-19T07:39:30.302Z,5.83
2018-12-19T07:41:58.923Z,6.27
2018-12-19T07:44:27.542Z,7.30
2018-12-19T07:46:56.206Z,6.23
2018-12-19T07:49:24.957Z,5.50
2018-12-19T07:51:53.639Z,5.00
2018-12-19T07:54:22.722Z,5.73
2018-12-19T07:56:51.466Z,5.30
2018-12-19T07:59:20.071Z,9.43
2018-12-19T08:01:49.422Z,4.63
2018-12-19T08:04:18.360Z,5.23
2018-12-19T08:06:46.923Z,7.40
2018-12-19T08:09:15.847Z,8.23
2018-12-19T08:11:44.543Z,9.17
2018-12-19T08:14:13.414Z,9.53
2018-12-19T08:16:42.022Z,8.33
2018-12-19T08:19:10.834Z,6.63
2018-12-19T08:21:39.440Z,7.33
2018-12-19T08:24:08.114Z,5.73
2018-12-19T08:26:36.808Z,5.53
2018-12-19T08:29:05.523Z,6.30
2018-12-19T08:31:34.218Z,6.53
2018-12-19T08:34:02.891Z,6.43
2018-12-19T08:36:31.579Z,8.93
2018-12-19T08:39:00.219Z,9.20
2018-12-19T08:41:29.006Z,9.73
2018-12-19T08:43:57.481Z,6.63
2018-12-19T08:46:26.621Z,7.07
2018-12-19T08:48:55.297Z,8.90
2018-12-19T08:51:24.453Z,7.93
2018-12-19T08:53:53.191Z,6.13
2018-12-19T08:56:21.833Z,6.37
2018-12-19T08:58:50.665Z,7.73
2018-12-19T09:01:19.335Z,7.03
2018-12-19T09:03:47.927Z,5.67
2018-12-19T09:06:16.622Z,5.73
2018-12-19T09:08:45.096Z,6.00
2018-12-19T09:11:13.774Z,6.13
2018-12-19T09:13:42.418Z,6.33
2018-12-19T09:16:10.995Z,6.10
2018-12-19T09:18:39.638Z,8.00
2018-12-19T09:21:09.076Z,4.50
2018-12-19T09:23:37.631Z,5.27
2018-12-19T09:26:06.940Z,4.57
2018-12-19T09:28:35.625Z,5.17
2018-12-19T09:31:04.449Z,4.50
2018-12-19T09:33:33.091Z,5.33
2018-12-19T09:36:01.775Z,9.20
2018-12-19T09:38:30.413Z,4.83
2018-12-19T09:40:59.023Z,5.10
2018-12-19T09:43:27.703Z,4.60
2018-12-19T09:45:56.411Z,6.77
2018-12-19T09:48:25.124Z,5.90
2018-12-19T09:50:53.722Z,7.13
2018-12-19T09:53:22.761Z,6.83
2018-12-19T09:55:51.545Z,10.23
2018-12-19T09:58:20.308Z,6.80
2018-12-19T10:00:48.929Z,6.47
2018-12-19T10:03:17.422Z,8.93
2018-12-19T10:05:46.116Z,7.03
2018-12-19T10:08:14.626Z,6.20
2018-12-19T10:10:43.404Z,6.83
2018-12-19T10:13:12.027Z,5.23
2018-12-19T10:15:40.501Z,5.80
2018-12-19T10:18:09.131Z,5.47
2018-12-19T10:20:37.841Z,6.53
2018-12-19T10:23:06.622Z,5.00
2018-12-19T10:25:35.131Z,4.87
2018-12-19T10:28:03.742Z,4.17
2018-12-19T10:30:36.597Z,4.60
2018-12-19T10:33:05.129Z,5.43
2018-12-19T10:35:33.638Z,5.17
2018-12-19T10:38:02.234Z,5.53
2018-12-19T10:40:30.777Z,6.43
2018-12-19T10:42:59.300Z,4.50
2018-12-19T10:45:27.940Z,5.40
2018-12-19T10:47:56.464Z,6.77
2018-12-19T10:50:25.088Z,4.63
2018-12-19T10:52:53.514Z,7.77
2018-12-19T10:55:22.204Z,5.10
2018-12-19T10:57:50.843Z,4.60
2018-12-19T11:00:24.722Z,4.63
2018-12-19T11:02:53.210Z,4.70
2018-12-19T11:05:21.753Z,4.57
2018-12-19T11:07:50.378Z,3.70
2018-12-19T11:10:18.997Z,5.23
2018-12-19T11:12:47.864Z,5.70
2018-12-19T11:15:16.465Z,5.07
2018-12-19T11:17:44.984Z,6.53
2018-12-19T11:20:14.232Z,4.30
2018-12-19T11:22:42.696Z,5.10
2018-12-19T11:25:11.292Z,4.83
2018-12-19T11:27:39.882Z,4.67
2018-12-19T11:30:09.425Z,4.60
2018-12-19T11:32:37.998Z,5.03
2018-12-19T11:35:06.705Z,5.00
2018-12-19T11:37:35.339Z,4.53
2018-12-19T11:40:04.553Z,4.47
2018-12-19T11:42:33.141Z,4.90
2018-12-19T11:45:01.699Z,4.77
2018-12-19T11:47:30.391Z,10.07
2018-12-19T11:49:59.008Z,5.30
2018-12-19T11:52:27.613Z,5.20
2018-12-19T11:54:56.285Z,6.23
2018-12-19T11:57:24.973Z,6.77
2018-12-19T11:59:53.722Z,6.40
2018-12-19T12:02:22.426Z,6.63
2018-12-19T12:04:51.036Z,8.07
2018-12-19T12:07:20.024Z,6.23
2018-12-19T12:09:48.686Z,6.47
2018-12-19T12:12:17.439Z,11.77
2018-12-19T12:14:46.009Z,10.00
2018-12-19T12:17:14.650Z,6.97
2018-12-19T12:19:43.339Z,9.33
2018-12-19T12:22:12.267Z,9.53
2018-12-19T12:24:40.932Z,9.97
2018-12-19T12:27:09.775Z,8.87
2018-12-19T12:29:38.666Z,6.67
2018-12-19T12:32:07.662Z,6.47
2018-12-19T12:34:36.417Z,6.20
2018-12-19T12:37:05.146Z,5.97
2018-12-19T12:39:33.971Z,5.70
2018-12-19T12:42:02.547Z,6.43
2018-12-19T12:44:31.602Z,8.87
2018-12-19T12:47:01.665Z,6.97
2018-12-19T12:49:30.504Z,5.63
2018-12-19T12:51:59.459Z,6.27
2018-12-19T12:54:28.114Z,6.67
2018-12-19T12:56:57.089Z,7.33
2018-12-19T12:59:25.963Z,5.80
2018-12-19T13:01:54.435Z,5.53
2018-12-19T13:04:23.244Z,6.07
2018-12-19T13:06:52.289Z,6.83
2018-12-19T13:09:20.940Z,6.97
2018-12-19T13:11:49.823Z,6.60
2018-12-19T13:14:18.501Z,6.53
2018-12-19T13:16:47.300Z,6.20
2018-12-19T13:19:16.122Z,8.70
2018-12-19T13:21:45.115Z,5.63
2018-12-19T13:24:14.108Z,6.57
2018-12-19T13:26:43.154Z,6.07
2018-12-19T13:29:11.962Z,5.97
2018-12-19T13:31:40.801Z,6.27
2018-12-19T13:34:09.540Z,5.57
2018-12-19T13:36:38.537Z,5.90
2018-12-19T13:39:08.486Z,5.70
2018-12-19T13:41:37.038Z,5.10
2018-12-19T13:44:05.487Z,6.00
2018-12-19T13:46:34.408Z,7.43
2018-12-19T13:49:03.166Z,5.60
2018-12-19T13:51:31.867Z,6.20
2018-12-19T13:54:00.859Z,6.30
2018-12-19T13:56:29.478Z,8.10
2018-12-19T13:58:58.623Z,7.03
2018-12-19T14:01:27.427Z,6.57
2018-12-19T14:03:56.199Z,6.70
2018-12-19T14:06:24.881Z,7.73
2018-12-19T14:08:53.630Z,7.20
2018-12-19T14:11:22.327Z,5.70
2018-12-19T14:13:51.022Z,7.10
2018-12-19T14:16:19.968Z,6.10
2018-12-19T14:18:48.603Z,5.67
2018-12-19T14:21:17.406Z,6.70
2018-12-19T14:23:46.226Z,5.80
2018-12-19T14:26:15.138Z,6.70
2018-12-19T14:28:44.076Z,7.10
2018-12-19T14:31:12.697Z,8.47
2018-12-19T14:33:41.354Z,7.07
2018-12-19T14:36:10.000Z,7.70
2018-12-19T14:38:38.461Z,7.87
2018-12-19T14:41:07.286Z,7.73
2018-12-19T14:43:35.777Z,7.03
2018-12-19T14:46:04.626Z,8.80
2018-12-19T14:48:33.929Z,11.10
2018-12-19T14:51:02.962Z,15.87
2018-12-19T14:53:31.461Z,14.87
2018-12-19T14:56:00.131Z,10.23
2018-12-19T14:58:28.846Z,9.60
2018-12-19T15:00:57.781Z,12.43
2018-12-19T15:03:26.397Z,12.80
2018-12-19T15:05:55.085Z,11.70
2018-12-19T15:08:23.867Z,10.13
2018-12-19T15:10:52.696Z,11.30
2018-12-19T15:13:21.662Z,10.37
2018-12-19T15:15:55.707Z,8.97
2018-12-19T15:18:24.609Z,10.23
2018-12-19T15:20:53.248Z,9.07
2018-12-19T15:23:21.883Z,9.73
2018-12-19T15:25:50.773Z,11.50
2018-12-19T15:28:19.470Z,10.40
2018-12-19T15:30:48.474Z,11.17
2018-12-19T15:33:17.143Z,10.23
2018-12-19T15:35:45.907Z,10.07
2018-12-19T15:38:15.461Z,12.23
2018-12-19T15:40:44.469Z,10.53
2018-12-19T15:43:13.325Z,13.27
2018-12-19T15:45:43.769Z,12.73
2018-12-19T15:48:12.351Z,12.10
2018-12-19T15:50:41.194Z,10.60
2018-12-19T15:53:10.209Z,9.30
2018-12-19T15:55:38.883Z,10.17
2018-12-19T15:58:08.013Z,8.93
2018-12-19T16:00:37.678Z,10.90
2018-12-19T16:03:06.369Z,11.13
2018-12-19T16:05:35.077Z,10.90
2018-12-19T16:08:03.981Z,9.90
2018-12-19T16:10:32.783Z,8.47
2018-12-19T16:13:01.605Z,12.60
2018-12-19T16:15:30.255Z,8.43
2018-12-19T16:17:59.206Z,9.00
2018-12-19T16:20:28.073Z,9.80
2018-12-19T16:22:56.557Z,9.50
2018-12-19T16:25:25.151Z,8.17
2018-12-19T16:27:53.622Z,22.20
2018-12-19T16:30:22.275Z,17.60
2018-12-19T16:32:50.799Z,13.13
2018-12-19T16:35:19.392Z,8.50
2018-12-19T16:37:48.117Z,8.70
2018-12-19T16:40:16.654Z,7.57
2018-12-19T16:42:46.158Z,8.73
2018-12-19T16:45:14.983Z,9.10
2018-12-19T16:47:43.764Z,9.60
2018-12-19T16:50:12.346Z,10.00
2018-12-19T16:52:41.199Z,12.53
2018-12-19T16:55:10.232Z,12.20
2018-12-19T16:57:38.913Z,11.13
2018-12-19T17:00:09.460Z,13.33
2018-12-19T17:02:38.121Z,14.70
2018-12-19T17:05:07.551Z,13.10
2018-12-19T17:07:36.235Z,13.83
2018-12-19T17:10:06.486Z,12.50
2018-12-19T17:12:35.278Z,11.90
2018-12-19T17:15:03.990Z,13.17
2018-12-19T17:17:32.515Z,10.63
2018-12-19T17:20:01.143Z,10.27
2018-12-19T17:22:29.917Z,10.07
2018-12-19T17:24:58.531Z,11.67
2018-12-19T17:27:27.242Z,15.03
2018-12-19T17:29:55.734Z,15.13
2018-12-19T17:32:24.797Z,17.43
2018-12-19T17:34:53.396Z,12.77
2018-12-19T17:37:22.151Z,14.50
2018-12-19T17:39:51.500Z,18.60
2018-12-19T17:42:20.017Z,15.23
2018-12-19T17:44:48.643Z,13.97
2018-12-19T17:47:17.479Z,14.27
2018-12-19T17:49:46.122Z,12.57
2018-12-19T17:52:14.868Z,12.70
2018-12-19T17:54:43.542Z,11.90
2018-12-19T17:57:12.118Z,14.67
2018-12-19T17:59:41.903Z,17.17
2018-12-19T18:02:10.570Z,14.73
2018-12-19T18:04:39.311Z,13.57
2018-12-19T18:07:07.887Z,11.67
2018-12-19T18:09:41.343Z,16.83
2018-12-19T18:12:10.483Z,18.93
2018-12-19T18:14:39.747Z,15.20
2018-12-19T18:17:08.361Z,16.70
2018-12-19T18:19:36.769Z,16.70
2018-12-19T18:22:05.532Z,12.23
2018-12-19T18:24:34.125Z,14.17
2018-12-19T18:27:02.850Z,12.37
2018-12-19T18:29:31.617Z,13.07
2018-12-19T18:32:03.026Z,12.37
2018-12-19T18:34:31.486Z,13.70
2018-12-19T18:36:59.999Z,12.43
2018-12-19T18:39:29.022Z,10.67
2018-12-19T18:41:57.890Z,11.30
2018-12-19T18:44:26.675Z,13.90
2018-12-19T18:46:55.497Z,15.17
2018-12-19T18:49:24.383Z,12.70
2018-12-19T18:51:53.237Z,12.77
2018-12-19T18:54:26.620Z,12.83
2018-12-19T18:56:57.468Z,14.50
2018-12-19T18:59:28.328Z,11.73
2018-12-19T19:01:57.144Z,12.67
2018-12-19T19:04:25.982Z,11.90
2018-12-19T19:06:54.871Z,10.77
2018-12-19T19:09:23.553Z,12.70
2018-12-19T19:11:52.155Z,13.90
2018-12-19T19:14:20.785Z,13.87
2018-12-19T19:16:49.506Z,16.73
2018-12-19T19:19:18.113Z,14.63
2018-12-19T19:21:46.800Z,20.07
2018-12-19T19:24:15.664Z,19.57
2018-12-19T19:26:44.496Z,18.63
2018-12-19T19:29:13.281Z,14.80
2018-12-19T19:31:42.258Z,14.23
2018-12-19T19:34:11.213Z,15.07
2018-12-19T19:36:39.921Z,13.43
2018-12-19T19:39:08.568Z,13.37
2018-12-19T19:41:37.088Z,11.57
2018-12-19T19:44:05.650Z,10.53
2018-12-19T19:46:34.160Z,10.63
2018-12-19T19:49:02.729Z,10.13
2018-12-19T19:51:31.393Z,12.10
2018-12-19T19:54:00.145Z,10.60
2018-12-19T19:56:28.905Z,15.23
2018-12-19T19:58:57.542Z,12.77
2018-12-19T20:01:26.194Z,12.50
2018-12-19T20:03:55.157Z,13.37
2018-12-19T20:06:23.882Z,14.87
2018-12-19T20:08:52.466Z,16.00
2018-12-19T20:11:21.255Z,13.17
2018-12-19T20:13:49.990Z,13.30
2018-12-19T20:16:18.589Z,11.60
2018-12-19T20:18:47.192Z,12.13
2018-12-19T20:21:15.903Z,13.20
2018-12-19T20:23:44.583Z,11.63
2018-12-19T20:26:13.100Z,10.40
2018-12-19T20:28:41.572Z,11.67
2018-12-19T20:31:10.155Z,10.80
2018-12-19T20:33:38.831Z,11.30
2018-12-19T20:36:07.345Z,11.13
2018-12-19T20:38:36.043Z,10.63
2018-12-19T20:41:04.559Z,10.20
2018-12-19T20:43:39.603Z,10.03
2018-12-19T20:46:03.733Z,10.70
2018-12-19T20:48:32.959Z,11.87
2018-12-19T20:51:01.736Z,11.33
2018-12-19T20:53:30.247Z,11.43
2018-12-19T20:56:03.729Z,11.10
2018-12-19T20:58:29.333Z,10.63
2018-12-19T21:00:57.986Z,11.93
2018-12-19T21:03:26.591Z,11.07
2018-12-19T21:05:55.260Z,14.47
2018-12-19T21:08:23.987Z,10.43
2018-12-19T21:10:53.029Z,11.97
2018-12-19T21:13:22.011Z,11.27
2018-12-19T21:15:50.522Z,10.93
2018-12-19T21:18:25.253Z,10.37
2018-12-19T21:20:53.855Z,12.50
2018-12-19T21:23:22.432Z,10.67
2018-12-19T21:25:50.897Z,12.53
2018-12-19T21:28:19.676Z,11.83
2018-12-19T21:30:48.381Z,12.87
2018-12-19T21:33:17.858Z,10.83
2018-12-19T21:35:46.485Z,10.27
2018-12-19T21:38:15.117Z,9.80
2018-12-19T21:40:43.668Z,10.00
2018-12-19T21:43:12.255Z,10.30
2018-12-19T21:45:40.798Z,10.23
2018-12-19T21:48:09.557Z,9.47
2018-12-19T21:50:38.075Z,7.77
2018-12-19T21:53:06.673Z,8.47
2018-12-19T21:55:35.492Z,9.20
2018-12-19T21:58:04.217Z,10.50
2018-12-19T22:00:36.775Z,10.20
2018-12-19T22:03:07.553Z,6.73
2018-12-19T22:05:39.168Z,6.73
2018-12-19T22:08:07.790Z,7.27
2018-12-19T22:10:36.506Z,6.00
2018-12-19T22:13:05.121Z,7.00
2018-12-19T22:15:33.815Z,5.93
2018-12-19T22:18:08.624Z,6.53
2018-12-19T22:20:38.196Z,6.77
2018-12-19T22:23:06.958Z,6.83
2018-12-19T22:25:35.840Z,7.13
2018-12-19T22:28:04.596Z,6.93
2018-12-19T22:30:33.194Z,7.07
2018-12-19T22:33:01.648Z,7.20
2018-12-19T22:35:30.368Z,7.40
2018-12-19T22:37:59.136Z,7.43
2018-12-19T22:40:27.770Z,6.50
2018-12-19T22:42:56.466Z,8.03
2018-12-19T22:45:25.135Z,6.90
2018-12-19T22:47:53.960Z,8.03
2018-12-19T22:50:22.549Z,7.27
2018-12-19T22:52:51.874Z,7.90
2018-12-19T22:55:20.871Z,7.90
2018-12-19T22:57:49.455Z,5.93
2018-12-19T23:00:18.255Z,6.90
2018-12-19T23:02:52.336Z,6.60
2018-12-19T23:05:26.361Z,7.17
2018-12-19T23:07:55.097Z,6.33
2018-12-19T23:10:23.633Z,8.53
2018-12-19T23:12:52.354Z,6.10
2018-12-19T23:15:21.528Z,6.20
2018-12-19T23:17:50.484Z,6.03
2018-12-19T23:20:19.276Z,6.00
2018-12-19T23:22:49.013Z,5.77
2018-12-19T23:25:17.769Z,5.97
2018-12-19T23:27:46.551Z,5.87
2018-12-19T23:30:15.539Z,5.50
2018-12-19T23:32:44.578Z,6.23
2018-12-19T23:35:13.462Z,5.60
2018-12-19T23:37:42.080Z,5.77
2018-12-19T23:40:10.726Z,5.33
2018-12-19T23:42:39.454Z,5.50
2018-12-19T23:45:08.200Z,5.53
2018-12-19T23:47:36.766Z,6.13
2018-12-19T23:50:05.824Z,5.20
2018-12-19T23:52:34.521Z,5.50
2018-12-19T23:55:03.829Z,5.20
2018-12-19T23:57:32.682Z,5.07
